createdAt,value
2023-02-02T00:00:02.038Z,36.45
2023-02-02T00:02:05.449Z,36.55
2023-02-02T00:04:08.642Z,47.35
2023-02-02T00:06:12.036Z,35.03
2023-02-02T00:08:15.147Z,35.05
2023-02-02T00:10:18.791Z,42.70
2023-02-02T00:12:23.183Z,34.72
2023-02-02T00:14:26.660Z,42.05
2023-02-02T00:16:41.870Z,44.45
2023-02-02T00:18:44.861Z,34.80
2023-02-02T00:20:49.424Z,39.80
2023-02-02T00:22:52.476Z,39.83
2023-02-02T00:24:55.488Z,45.38
2023-02-02T00:27:00.442Z,43.45
2023-02-02T00:29:06.427Z,46.50
2023-02-02T00:31:09.547Z,42.45
2023-02-02T00:33:12.677Z,41.85
2023-02-02T00:35:16.615Z,41.75
2023-02-02T00:37:19.741Z,32.78
2023-02-02T00:39:26.069Z,41.75
2023-02-02T00:41:29.091Z,34.90
2023-02-02T00:43:32.178Z,42.38
2023-02-02T00:45:35.847Z,41.28
2023-02-02T00:47:39.028Z,41.58
2023-02-02T00:49:42.935Z,41.38
2023-02-02T00:51:45.960Z,36.78
2023-02-02T00:53:50.399Z,31.27
2023-02-02T00:55:54.533Z,38.22
2023-02-02T00:57:57.554Z,41.95
2023-02-02T01:00:00.732Z,32.35
2023-02-02T01:02:05.099Z,41.35
2023-02-02T01:04:08.404Z,36.78
2023-02-02T01:06:11.775Z,36.85
2023-02-02T01:08:14.815Z,28.08
2023-02-02T01:10:19.765Z,34.88
2023-02-02T01:12:22.860Z,30.85
2023-02-02T01:14:26.520Z,42.92
2023-02-02T01:16:32.111Z,27.75
2023-02-02T01:18:36.723Z,30.67
2023-02-02T01:20:39.760Z,33.38
2023-02-02T01:22:42.798Z,30.90
2023-02-02T01:24:45.950Z,35.90
2023-02-02T01:26:49.121Z,29.45
2023-02-02T01:28:52.221Z,33.17
2023-02-02T01:30:56.885Z,42.22
2023-02-02T01:32:59.925Z,35.22
2023-02-02T01:35:04.427Z,43.53
2023-02-02T01:37:07.561Z,43.05
2023-02-02T01:39:10.623Z,33.13
2023-02-02T01:41:16.652Z,34.03
2023-02-02T01:43:24.120Z,37.90
2023-02-02T01:45:29.582Z,44.78
2023-02-02T01:47:36.371Z,36.75
2023-02-02T01:49:41.194Z,44.20
2023-02-02T01:51:50.293Z,32.53
2023-02-02T01:53:56.124Z,26.48
2023-02-02T01:56:00.146Z,32.80
2023-02-02T01:58:05.927Z,28.83
2023-02-02T02:00:12.269Z,21.42
2023-02-02T02:02:18.303Z,24.40
2023-02-02T02:04:22.096Z,19.55
2023-02-02T02:06:26.219Z,30.63
2023-02-02T02:08:35.016Z,25.52
2023-02-02T02:10:38.482Z,35.42
2023-02-02T02:12:41.571Z,29.92
2023-02-02T02:15:06.723Z,33.58
2023-02-02T02:17:22.938Z,34.38
2023-02-02T02:20:19.369Z,29.05
2023-02-02T02:22:40.845Z,31.10
2023-02-02T02:25:33.712Z,32.65
2023-02-02T02:28:19.232Z,35.15
2023-02-02T02:30:49.477Z,39.28
2023-02-02T02:33:01.683Z,29.55
2023-02-02T02:35:13.272Z,44.17
2023-02-02T02:37:24.854Z,40.88
2023-02-02T02:39:33.440Z,29.75
2023-02-02T02:41:42.675Z,33.42
2023-02-02T02:43:53.926Z,29.92
2023-02-02T02:45:57.655Z,33.05
2023-02-02T02:48:04.357Z,38.42
2023-02-02T02:50:08.608Z,28.83
2023-02-02T02:52:11.772Z,38.28
2023-02-02T02:54:18.190Z,47.72
2023-02-02T02:56:33.098Z,36.05
2023-02-02T02:58:46.588Z,40.65
2023-02-02T03:01:01.183Z,32.10
2023-02-02T03:03:12.217Z,31.85
2023-02-02T03:05:29.060Z,32.28
2023-02-02T03:07:39.511Z,27.42
2023-02-02T03:09:45.684Z,31.85
2023-02-02T03:11:48.825Z,33.72
2023-02-02T03:13:51.969Z,31.27
2023-02-02T03:15:55.359Z,21.73
2023-02-02T03:17:58.395Z,30.25
2023-02-02T03:20:02.812Z,23.55
2023-02-02T03:22:05.940Z,28.80
2023-02-02T03:24:09.300Z,26.55
2023-02-02T03:26:12.456Z,37.08
2023-02-02T03:28:17.644Z,22.98
2023-02-02T03:30:21.333Z,27.90
2023-02-02T03:32:24.496Z,25.58
2023-02-02T03:34:27.515Z,32.92
2023-02-02T03:36:31.932Z,29.40
2023-02-02T03:38:35.066Z,37.22
2023-02-02T03:40:38.083Z,26.00
2023-02-02T03:42:41.237Z,27.42
2023-02-02T03:44:44.275Z,27.23
2023-02-02T03:46:47.366Z,32.00
2023-02-02T03:48:50.401Z,27.38
2023-02-02T03:50:53.758Z,19.30
2023-02-02T03:52:58.182Z,20.45
2023-02-02T03:55:01.575Z,25.02
2023-02-02T03:57:04.683Z,27.00
2023-02-02T03:59:07.742Z,21.42
2023-02-02T04:01:14.299Z,21.80
2023-02-02T04:03:17.342Z,20.63
2023-02-02T04:05:20.421Z,23.65
2023-02-02T04:07:23.495Z,25.17
2023-02-02T04:09:28.085Z,24.48
2023-02-02T04:11:31.466Z,29.58
2023-02-02T04:13:34.497Z,23.98
2023-02-02T04:15:37.512Z,19.50
2023-02-02T04:17:40.576Z,31.95
2023-02-02T04:19:43.647Z,26.23
2023-02-02T04:21:46.807Z,23.10
2023-02-02T04:23:50.025Z,25.15
2023-02-02T04:25:54.712Z,22.77
2023-02-02T04:27:57.773Z,27.58
2023-02-02T04:30:00.829Z,25.13
2023-02-02T04:32:03.915Z,27.35
2023-02-02T04:34:06.947Z,22.70
2023-02-02T04:36:10.179Z,29.20
2023-02-02T04:38:13.271Z,22.55
2023-02-02T04:40:16.384Z,29.88
2023-02-02T04:42:20.821Z,23.48
2023-02-02T04:44:23.900Z,21.90
2023-02-02T04:46:28.537Z,25.52
2023-02-02T04:48:31.952Z,22.95
2023-02-02T04:50:35.057Z,21.10
2023-02-02T04:52:38.233Z,28.23
2023-02-02T04:54:41.349Z,29.88
2023-02-02T04:56:44.389Z,23.02
2023-02-02T04:58:48.760Z,28.40
2023-02-02T05:00:51.841Z,21.20
2023-02-02T05:02:54.951Z,27.42
2023-02-02T05:04:58.187Z,19.20
2023-02-02T05:07:01.181Z,22.42
2023-02-02T05:09:04.266Z,21.10
2023-02-02T05:11:08.303Z,23.70
2023-02-02T05:13:11.309Z,31.25
2023-02-02T05:15:15.801Z,34.17
2023-02-02T05:17:18.873Z,27.08
2023-02-02T05:19:21.934Z,28.10
2023-02-02T05:21:25.115Z,26.55
2023-02-02T05:23:28.379Z,36.17
2023-02-02T05:25:31.472Z,36.70
2023-02-02T05:27:35.085Z,26.33
2023-02-02T05:29:38.140Z,33.45
2023-02-02T05:31:42.529Z,34.30
2023-02-02T05:33:45.653Z,38.20
2023-02-02T05:35:49.400Z,28.40
2023-02-02T05:37:52.347Z,36.50
2023-02-02T05:39:55.401Z,36.65
2023-02-02T05:41:58.508Z,32.13
2023-02-02T05:44:01.562Z,36.67
2023-02-02T05:46:04.901Z,28.08
2023-02-02T05:48:11.059Z,39.72
2023-02-02T05:50:14.174Z,30.60
2023-02-02T05:52:20.662Z,34.53
2023-02-02T05:54:24.094Z,34.53
2023-02-02T05:56:27.223Z,37.15
2023-02-02T05:58:30.280Z,35.60
2023-02-02T06:00:33.371Z,32.90
2023-02-02T06:02:36.375Z,45.40
2023-02-02T06:04:40.982Z,39.05
2023-02-02T06:06:44.141Z,39.17
2023-02-02T06:08:47.210Z,27.95
2023-02-02T06:10:50.263Z,44.97
2023-02-02T06:12:53.314Z,37.75
2023-02-02T06:14:56.398Z,33.15
2023-02-02T06:16:59.487Z,46.30
2023-02-02T06:19:02.611Z,33.25
2023-02-02T06:21:08.195Z,36.92
2023-02-02T06:23:11.197Z,32.38
2023-02-02T06:25:14.219Z,39.28
2023-02-02T06:27:17.271Z,40.65
2023-02-02T06:29:20.320Z,38.95
2023-02-02T06:31:23.579Z,43.35
2023-02-02T06:33:26.701Z,34.55
2023-02-02T06:35:29.832Z,42.90
2023-02-02T06:37:35.200Z,34.85
2023-02-02T06:39:38.264Z,31.90
2023-02-02T06:41:41.532Z,37.45
2023-02-02T06:43:44.590Z,40.38
2023-02-02T06:45:47.701Z,38.70
2023-02-02T06:47:50.764Z,33.72
2023-02-02T06:49:53.818Z,34.08
2023-02-02T06:51:56.923Z,26.05
2023-02-02T06:54:01.418Z,23.75
2023-02-02T06:56:06.818Z,27.60
2023-02-02T06:58:09.865Z,22.45
2023-02-02T07:00:14.583Z,28.00
2023-02-02T07:02:17.669Z,20.73
2023-02-02T07:04:20.787Z,28.90
2023-02-02T07:06:25.718Z,33.85
2023-02-02T07:08:28.817Z,21.33
2023-02-02T07:11:14.000Z,25.00
2023-02-02T07:12:57.422Z,29.50
2023-02-02T07:15:00.525Z,33.10
2023-02-02T07:17:03.662Z,32.60
2023-02-02T07:19:06.797Z,31.88
2023-02-02T07:21:10.677Z,37.53
2023-02-02T07:23:13.736Z,37.80
2023-02-02T07:25:17.095Z,37.05
2023-02-02T07:27:21.609Z,40.40
2023-02-02T07:29:24.827Z,33.42
2023-02-02T07:31:29.192Z,34.53
2023-02-02T07:33:32.362Z,35.63
2023-02-02T07:35:36.848Z,30.10
2023-02-02T07:37:40.469Z,35.75
2023-02-02T07:39:44.313Z,38.83
2023-02-02T07:41:47.637Z,41.03
2023-02-02T07:44:02.943Z,32.88
2023-02-02T07:46:09.988Z,33.67
2023-02-02T07:48:13.087Z,33.60
2023-02-02T07:50:16.246Z,38.08
2023-02-02T07:52:19.503Z,36.05
2023-02-02T07:54:23.017Z,43.53
2023-02-02T07:56:28.183Z,42.30
2023-02-02T07:58:31.193Z,29.73
2023-02-02T08:00:35.618Z,31.17
2023-02-02T08:02:38.814Z,34.92
2023-02-02T08:04:41.872Z,25.58
2023-02-02T08:06:45.111Z,29.30
2023-02-02T08:08:49.105Z,31.95
2023-02-02T08:10:53.334Z,41.97
2023-02-02T08:12:56.434Z,33.13
2023-02-02T08:14:59.717Z,36.83
2023-02-02T08:17:04.424Z,32.50
2023-02-02T08:19:07.754Z,29.45
2023-02-02T08:21:11.911Z,30.60
2023-02-02T08:23:16.699Z,25.13
2023-02-02T08:25:19.711Z,29.40
2023-02-02T08:27:22.750Z,24.10
2023-02-02T08:29:25.832Z,36.35
2023-02-02T08:31:31.102Z,30.55
2023-02-02T08:33:36.306Z,23.83
2023-02-02T08:35:42.178Z,29.92
2023-02-02T08:37:45.284Z,29.73
2023-02-02T08:39:48.617Z,27.95
2023-02-02T08:41:51.862Z,28.75
2023-02-02T08:43:54.952Z,24.02
2023-02-02T08:46:04.214Z,28.27
2023-02-02T08:48:12.190Z,25.30
2023-02-02T08:50:18.347Z,23.65
2023-02-02T08:52:21.495Z,31.48
2023-02-02T08:54:24.565Z,22.30
2023-02-02T08:56:27.558Z,29.73
2023-02-02T08:58:31.259Z,25.65
2023-02-02T09:00:34.349Z,36.70
2023-02-02T09:02:37.523Z,24.20
2023-02-02T09:04:42.552Z,26.50
2023-02-02T09:06:47.259Z,20.83
2023-02-02T09:08:50.361Z,24.73
2023-02-02T09:10:53.740Z,23.58
2023-02-02T09:12:56.840Z,21.10
2023-02-02T09:15:00.055Z,23.48
2023-02-02T09:17:03.174Z,28.00
2023-02-02T09:19:06.287Z,22.27
2023-02-02T09:21:11.620Z,21.35
2023-02-02T09:23:16.173Z,19.17
2023-02-02T09:25:19.334Z,17.67
2023-02-02T09:27:22.527Z,19.73
2023-02-02T09:29:25.643Z,23.80
2023-02-02T09:31:28.720Z,22.00
2023-02-02T09:33:31.866Z,25.83
2023-02-02T09:35:35.126Z,19.45
2023-02-02T09:37:38.254Z,25.85
2023-02-02T09:39:42.866Z,17.38
2023-02-02T09:42:08.920Z,27.80
2023-02-02T09:44:20.219Z,22.45
2023-02-02T09:46:35.235Z,23.02
2023-02-02T09:48:51.070Z,24.27
2023-02-02T09:50:57.438Z,15.02
2023-02-02T09:53:07.790Z,23.92
2023-02-02T09:55:19.369Z,18.67
2023-02-02T09:57:26.666Z,22.65
2023-02-02T09:59:34.754Z,19.80
2023-02-02T10:01:42.776Z,25.55
2023-02-02T10:03:57.217Z,28.77
2023-02-02T10:06:07.142Z,30.17
2023-02-02T10:08:33.614Z,25.23
2023-02-02T10:10:44.507Z,17.67
2023-02-02T10:12:54.244Z,18.73
2023-02-02T10:15:01.482Z,24.67
2023-02-02T10:17:27.815Z,13.60
2023-02-02T10:19:32.118Z,25.83
2023-02-02T10:21:41.981Z,18.10
2023-02-02T10:23:46.677Z,19.58
2023-02-02T10:25:58.127Z,22.00
2023-02-02T10:30:19.087Z,23.63
2023-02-02T10:32:26.518Z,24.63
2023-02-02T10:34:34.035Z,17.48
2023-02-02T10:36:51.597Z,19.40
2023-02-02T10:39:00.746Z,15.52
2023-02-02T10:41:13.073Z,22.60
2023-02-02T10:43:48.483Z,17.13
2023-02-02T10:45:52.956Z,19.08
2023-02-02T10:47:56.084Z,19.63
2023-02-02T10:50:08.969Z,21.25
2023-02-02T10:52:18.188Z,11.63
2023-02-02T10:54:55.460Z,19.58
2023-02-02T10:57:05.158Z,15.35
2023-02-02T10:59:15.103Z,14.80
2023-02-02T11:01:22.688Z,13.45
2023-02-02T11:03:30.407Z,17.33
2023-02-02T11:05:50.935Z,22.05
2023-02-02T11:07:55.501Z,19.40
2023-02-02T11:09:58.602Z,19.05
2023-02-02T11:12:10.578Z,18.80
2023-02-02T11:14:18.835Z,20.98
2023-02-02T11:16:38.907Z,21.85
2023-02-02T11:18:46.696Z,20.52
2023-02-02T11:20:49.870Z,25.20
2023-02-02T11:23:02.671Z,23.00
2023-02-02T11:25:07.649Z,14.70
2023-02-02T11:27:18.591Z,18.92
2023-02-02T11:29:27.943Z,14.85
2023-02-02T11:31:33.311Z,16.88
2023-02-02T11:33:38.050Z,13.88
2023-02-02T11:35:54.354Z,10.82
2023-02-02T11:38:01.154Z,13.70
2023-02-02T11:40:22.684Z,15.35
2023-02-02T11:44:34.185Z,14.80
2023-02-02T11:46:39.613Z,17.73
2023-02-02T11:48:51.155Z,18.02
2023-02-02T11:50:55.981Z,16.20
2023-02-02T11:52:59.698Z,12.15
2023-02-02T11:55:10.657Z,13.48
2023-02-02T11:57:18.889Z,14.48
2023-02-02T11:59:32.799Z,13.18
2023-02-02T12:01:39.768Z,13.30
2023-02-02T12:03:49.447Z,12.85
2023-02-02T12:05:52.739Z,14.20
2023-02-02T12:07:55.863Z,11.40
2023-02-02T12:10:03.038Z,15.30
2023-02-02T12:12:16.625Z,9.43
2023-02-02T12:14:34.099Z,13.68
2023-02-02T12:16:57.112Z,11.32
2023-02-02T12:19:25.599Z,13.43
2023-02-02T12:21:40.617Z,9.93
2023-02-02T12:24:00.068Z,9.88
2023-02-02T12:26:16.194Z,8.20
2023-02-02T12:28:36.728Z,15.20
2023-02-02T12:30:50.142Z,15.90
2023-02-02T12:33:14.875Z,14.85
2023-02-02T12:35:33.228Z,13.52
2023-02-02T12:37:52.271Z,16.48
2023-02-02T12:40:15.341Z,12.00
2023-02-02T12:42:42.432Z,13.38
2023-02-02T12:44:58.536Z,14.75
2023-02-02T12:47:18.454Z,14.15
2023-02-02T12:49:35.389Z,19.05
2023-02-02T12:51:58.024Z,11.35
2023-02-02T12:54:32.894Z,14.98
2023-02-02T12:56:41.696Z,11.15
2023-02-02T12:58:57.518Z,9.63
2023-02-02T13:01:24.598Z,10.00
2023-02-02T13:03:40.883Z,11.27
2023-02-02T13:05:56.331Z,11.52
2023-02-02T13:08:05.173Z,14.48
2023-02-02T13:10:17.266Z,11.85
2023-02-02T13:12:24.495Z,14.85
2023-02-02T13:14:32.607Z,15.50
2023-02-02T13:16:40.402Z,11.98
2023-02-02T13:18:53.227Z,8.10
2023-02-02T13:21:00.728Z,14.43
2023-02-02T13:23:08.441Z,12.88
2023-02-02T13:25:21.004Z,15.38
2023-02-02T13:27:25.334Z,6.20
2023-02-02T13:29:39.018Z,11.07
2023-02-02T13:31:57.867Z,9.02
2023-02-02T13:34:15.597Z,8.40
2023-02-02T13:36:26.008Z,11.27
2023-02-02T13:38:30.909Z,11.68
2023-02-02T13:40:36.896Z,10.52
2023-02-02T13:42:49.318Z,8.52
2023-02-02T13:44:58.472Z,7.00
2023-02-02T13:47:05.119Z,5.05
2023-02-02T13:49:16.213Z,7.95
2023-02-02T13:51:51.129Z,7.15
2023-02-02T13:54:19.638Z,11.50
2023-02-02T13:56:40.507Z,8.70
2023-02-02T13:58:59.492Z,5.65
2023-02-02T14:01:07.393Z,9.73
2023-02-02T14:03:28.657Z,14.68
2023-02-02T14:05:35.813Z,5.63
2023-02-02T14:07:42.395Z,7.72
2023-02-02T14:09:49.951Z,7.07
2023-02-02T14:11:58.877Z,10.13
2023-02-02T14:14:28.388Z,6.22
2023-02-02T14:16:48.174Z,11.13
2023-02-02T14:18:56.535Z,9.70
2023-02-02T14:21:01.188Z,10.63
2023-02-02T14:23:04.288Z,10.73
2023-02-02T14:25:41.570Z,9.32
2023-02-02T14:27:58.485Z,9.70
2023-02-02T14:30:02.195Z,8.32
2023-02-02T14:32:34.511Z,8.85
2023-02-02T14:34:39.449Z,7.50
2023-02-02T14:36:54.762Z,12.57
2023-02-02T14:39:19.766Z,14.43
2023-02-02T14:42:00.673Z,13.32
2023-02-02T14:44:06.345Z,6.73
2023-02-02T14:46:34.836Z,13.15
2023-02-02T14:48:39.166Z,9.57
2023-02-02T14:50:49.844Z,9.57
2023-02-02T14:53:03.955Z,8.93
2023-02-02T14:55:17.527Z,12.68
2023-02-02T14:57:26.405Z,9.27
2023-02-02T14:59:34.301Z,14.25
2023-02-02T15:01:39.218Z,9.05
2023-02-02T15:03:55.295Z,14.02
2023-02-02T15:06:05.317Z,10.05
2023-02-02T15:08:16.063Z,12.20
2023-02-02T15:10:53.903Z,14.85
2023-02-02T15:13:06.095Z,13.15
2023-02-02T15:15:21.328Z,8.00
2023-02-02T15:17:34.489Z,11.52
2023-02-02T15:19:41.535Z,10.70
2023-02-02T15:21:48.502Z,16.83
2023-02-02T15:23:53.146Z,14.63
2023-02-02T15:26:00.627Z,17.13
2023-02-02T15:28:13.229Z,16.27
2023-02-02T15:30:18.438Z,13.27
2023-02-02T15:32:25.198Z,20.70
2023-02-02T15:34:37.678Z,10.85
2023-02-02T15:36:43.258Z,13.77
2023-02-02T15:38:49.605Z,12.40
2023-02-02T15:40:56.695Z,13.95
2023-02-02T15:43:06.328Z,14.88
2023-02-02T15:45:32.119Z,17.15
2023-02-02T15:47:41.864Z,12.88
2023-02-02T15:49:46.133Z,19.90
2023-02-02T15:51:51.802Z,14.32
2023-02-02T15:53:54.830Z,17.67
2023-02-02T15:55:59.721Z,17.23
2023-02-02T15:58:03.601Z,18.73
2023-02-02T16:00:26.370Z,16.42
2023-02-02T16:02:36.689Z,21.02
2023-02-02T16:04:42.220Z,20.45
2023-02-02T16:06:46.178Z,24.38
2023-02-02T16:08:50.896Z,23.98
2023-02-02T16:11:05.193Z,29.65
2023-02-02T16:13:08.257Z,27.75
2023-02-02T16:15:19.938Z,25.35
2023-02-02T16:17:25.326Z,17.40
2023-02-02T16:19:28.379Z,14.20
2023-02-02T16:21:31.920Z,14.05
2023-02-02T16:23:38.154Z,18.08
2023-02-02T16:25:49.417Z,15.43
2023-02-02T16:27:54.137Z,14.00
2023-02-02T16:30:00.806Z,22.77
2023-02-02T16:32:05.066Z,20.63
2023-02-02T16:34:16.267Z,20.58
2023-02-02T16:36:25.431Z,18.10
2023-02-02T16:38:33.210Z,16.50
2023-02-02T16:40:36.586Z,16.17
2023-02-02T16:42:39.749Z,16.27
2023-02-02T16:44:44.737Z,24.67
2023-02-02T16:46:51.370Z,20.38
2023-02-02T16:49:02.204Z,22.30
2023-02-02T16:51:31.605Z,19.65
2023-02-02T16:53:39.348Z,17.80
2023-02-02T16:55:51.193Z,20.40
2023-02-02T16:57:54.586Z,21.45
2023-02-02T17:00:02.097Z,21.58
2023-02-02T17:02:21.947Z,18.45
2023-02-02T17:04:27.081Z,26.77
2023-02-02T17:06:45.766Z,25.02
2023-02-02T17:08:54.735Z,25.17
2023-02-02T17:11:09.151Z,30.17
2023-02-02T17:13:38.402Z,26.17
2023-02-02T17:15:42.827Z,24.75
2023-02-02T17:17:47.775Z,30.55
2023-02-02T17:19:51.071Z,37.72
2023-02-02T17:21:54.158Z,29.40
2023-02-02T17:23:57.211Z,28.08
2023-02-02T17:26:00.766Z,30.23
2023-02-02T17:28:07.798Z,29.42
2023-02-02T17:30:16.691Z,27.00
2023-02-02T17:32:21.168Z,24.98
2023-02-02T17:34:24.787Z,25.38
2023-02-02T17:36:27.941Z,24.40
2023-02-02T17:38:31.007Z,22.33
2023-02-02T17:40:34.768Z,23.58
2023-02-02T17:42:38.598Z,22.98
2023-02-02T17:44:41.679Z,23.92
2023-02-02T17:46:44.882Z,22.75
2023-02-02T17:48:49.370Z,20.77
2023-02-02T17:50:52.640Z,21.75
2023-02-02T17:52:56.050Z,15.60
2023-02-02T17:54:59.110Z,17.48
2023-02-02T17:57:02.205Z,20.52
2023-02-02T17:59:05.247Z,24.58
2023-02-02T18:01:08.593Z,19.02
2023-02-02T18:03:14.364Z,19.90
2023-02-02T18:05:19.740Z,23.67
2023-02-02T18:07:22.877Z,22.50
2023-02-02T18:09:26.206Z,19.98
2023-02-02T18:11:29.333Z,21.77
2023-02-02T18:13:33.006Z,17.33
2023-02-02T18:15:36.088Z,14.63
2023-02-02T18:17:39.304Z,20.67
2023-02-02T18:19:45.052Z,18.33
2023-02-02T18:21:49.706Z,19.65
2023-02-02T18:23:53.070Z,20.30
2023-02-02T18:25:56.155Z,20.20
2023-02-02T18:27:59.204Z,22.58
2023-02-02T18:30:02.246Z,17.17
2023-02-02T18:32:05.711Z,20.30
2023-02-02T18:34:08.797Z,15.73
2023-02-02T18:36:14.322Z,18.63
2023-02-02T18:38:19.646Z,19.20
2023-02-02T18:40:22.764Z,20.60
2023-02-02T18:42:29.824Z,22.40
2023-02-02T18:44:34.469Z,29.10
2023-02-02T18:46:37.931Z,20.33
2023-02-02T18:48:41.493Z,22.02
2023-02-02T18:50:44.543Z,34.63
2023-02-02T18:52:47.715Z,30.58
2023-02-02T18:54:52.159Z,23.67
2023-02-02T18:56:55.244Z,27.27
2023-02-02T18:58:59.626Z,31.40
2023-02-02T19:01:08.547Z,25.80
2023-02-02T19:03:11.601Z,25.13
2023-02-02T19:05:31.809Z,26.15
2023-02-02T19:07:52.438Z,20.95
2023-02-02T19:09:57.047Z,23.42
2023-02-02T19:12:00.341Z,20.75
2023-02-02T19:14:03.462Z,20.80
2023-02-02T19:16:15.380Z,17.92
2023-02-02T19:18:21.285Z,21.30
2023-02-02T19:20:29.117Z,13.68
2023-02-02T19:22:33.607Z,17.60
2023-02-02T19:24:39.860Z,21.58
2023-02-02T19:26:47.049Z,22.95
2023-02-02T19:28:50.335Z,20.23
2023-02-02T19:30:54.622Z,18.20
2023-02-02T19:32:57.739Z,23.88
2023-02-02T19:35:02.713Z,19.63
2023-02-02T19:37:23.109Z,19.45
2023-02-02T19:39:31.842Z,22.13
2023-02-02T19:41:39.288Z,24.02
2023-02-02T19:43:47.623Z,25.15
2023-02-02T19:45:51.093Z,22.83
2023-02-02T19:47:56.033Z,18.02
2023-02-02T19:50:01.177Z,16.65
2023-02-02T19:52:05.353Z,21.88
2023-02-02T19:54:34.089Z,20.42
2023-02-02T19:56:40.395Z,20.95
2023-02-02T19:58:44.981Z,29.50
2023-02-02T20:00:48.888Z,18.30
2023-02-02T20:03:00.480Z,20.02
2023-02-02T20:05:15.959Z,22.30
2023-02-02T20:07:22.174Z,24.95
2023-02-02T20:09:27.087Z,17.83
2023-02-02T20:11:35.712Z,19.55
2023-02-02T20:13:45.513Z,20.90
2023-02-02T20:15:51.073Z,26.70
2023-02-02T20:17:55.002Z,21.92
2023-02-02T20:19:58.109Z,22.38
2023-02-02T20:22:01.255Z,18.95
2023-02-02T20:24:05.064Z,21.55
2023-02-02T20:26:24.173Z,20.83
2023-02-02T20:28:43.252Z,27.38
2023-02-02T20:30:46.368Z,24.83
2023-02-02T20:32:55.152Z,22.90
2023-02-02T20:35:00.007Z,23.23
2023-02-02T20:37:06.738Z,18.55
2023-02-02T20:39:30.580Z,20.50
2023-02-02T20:41:33.640Z,23.83
2023-02-02T20:43:36.840Z,24.55
2023-02-02T20:45:40.092Z,21.90
2023-02-02T20:47:43.310Z,22.90
2023-02-02T20:49:48.554Z,23.17
2023-02-02T20:51:51.907Z,15.52
2023-02-02T20:53:56.619Z,21.20
2023-02-02T20:56:02.133Z,19.75
2023-02-02T20:58:05.564Z,21.17
2023-02-02T21:00:11.123Z,21.52
2023-02-02T21:02:19.058Z,19.70
2023-02-02T21:04:23.070Z,13.65
2023-02-02T21:06:28.777Z,19.45
2023-02-02T21:08:33.154Z,16.58
2023-02-02T21:10:36.213Z,17.10
2023-02-02T21:12:40.259Z,19.02
2023-02-02T21:14:45.013Z,16.88
2023-02-02T21:16:48.270Z,17.20
2023-02-02T21:18:51.823Z,22.42
2023-02-02T21:20:54.928Z,14.75
2023-02-02T21:22:59.565Z,15.88
2023-02-02T21:25:02.610Z,17.77
2023-02-02T21:27:05.781Z,14.48
2023-02-02T21:29:08.968Z,15.38
2023-02-02T21:31:14.877Z,12.25
2023-02-02T21:33:18.054Z,17.08
2023-02-02T21:35:21.141Z,13.00
2023-02-02T21:37:24.197Z,13.20
2023-02-02T21:39:31.667Z,19.83
2023-02-02T21:41:34.838Z,15.40
2023-02-02T21:43:38.543Z,11.80
2023-02-02T21:45:43.928Z,14.95
2023-02-02T21:47:54.978Z,12.63
2023-02-02T21:50:00.227Z,15.52
2023-02-02T21:52:13.540Z,14.73
2023-02-02T21:54:22.066Z,9.23
2023-02-02T21:56:29.227Z,11.15
2023-02-02T21:58:35.090Z,14.57
2023-02-02T22:00:38.820Z,9.75
2023-02-02T22:02:45.198Z,11.85
2023-02-02T22:04:48.365Z,15.00
2023-02-02T22:06:53.555Z,17.33
2023-02-02T22:09:02.234Z,12.52
2023-02-02T22:11:06.678Z,13.80
2023-02-02T22:13:18.820Z,14.43
2023-02-02T22:15:23.362Z,14.05
2023-02-02T22:17:30.281Z,16.48
2023-02-02T22:19:35.316Z,12.13
2023-02-02T22:21:38.324Z,15.30
2023-02-02T22:23:41.448Z,11.98
2023-02-02T22:25:46.430Z,13.73
2023-02-02T22:27:51.745Z,9.32
2023-02-02T22:30:03.571Z,9.02
2023-02-02T22:32:06.626Z,9.48
2023-02-02T22:34:09.709Z,11.50
2023-02-02T22:36:12.858Z,10.77
2023-02-02T22:38:18.927Z,9.48
2023-02-02T22:40:23.354Z,7.55
2023-02-02T22:42:26.462Z,13.00
2023-02-02T22:44:29.527Z,9.75
2023-02-02T22:46:34.009Z,9.80
2023-02-02T22:48:37.187Z,8.23
2023-02-02T22:50:41.036Z,8.90
2023-02-02T22:52:44.348Z,10.10
2023-02-02T22:54:47.347Z,7.45
2023-02-02T22:56:50.383Z,8.65
2023-02-02T22:58:53.416Z,7.85
2023-02-02T23:00:56.452Z,8.50
2023-02-02T23:03:01.172Z,8.82
2023-02-02T23:05:04.330Z,7.57
2023-02-02T23:07:07.370Z,9.10
2023-02-02T23:09:10.410Z,7.03
2023-02-02T23:11:13.457Z,7.40
2023-02-02T23:13:16.517Z,7.40
2023-02-02T23:15:19.744Z,5.07
2023-02-02T23:17:23.005Z,5.00
2023-02-02T23:19:27.416Z,7.47
2023-02-02T23:21:30.548Z,6.15
2023-02-02T23:23:33.758Z,7.28
2023-02-02T23:25:36.818Z,5.88
2023-02-02T23:27:40.319Z,8.23
2023-02-02T23:29:43.422Z,7.07
2023-02-02T23:31:46.560Z,6.00
2023-02-02T23:33:49.626Z,8.35
2023-02-02T23:35:54.158Z,5.72
2023-02-02T23:37:57.179Z,8.00
2023-02-02T23:40:00.247Z,6.50
2023-02-02T23:42:03.274Z,7.47
2023-02-02T23:44:06.601Z,7.75
2023-02-02T23:46:09.831Z,10.43
2023-02-02T23:48:13.120Z,10.50
2023-02-02T23:50:16.404Z,8.95
2023-02-02T23:52:21.160Z,9.13
2023-02-02T23:54:24.336Z,9.90
2023-02-02T23:56:27.779Z,9.18
2023-02-02T23:58:30.861Z,10.73
